sensor_id;sensor_type;location;lat;lon;timestamp;temperature;humidity
22337;DHT22;14992;50.844;4.418;2023-09-12T00:01:08;23.10;99.90
22337;DHT22;14992;50.844;4.418;2023-09-12T00:03:39;23.00;99.90
22337;DHT22;14992;50.844;4.418;2023-09-12T00:06:07;23.10;99.90
22337;DHT22;14992;50.844;4.418;2023-09-12T00:08:36;23.10;99.90
22337;DHT22;14992;50.844;4.418;2023-09-12T00:11:07;23.10;99.90
22337;DHT22;14992;50.844;4.418;2023-09-12T00:13:38;23.10;99.90
22337;DHT22;14992;50.844;4.418;2023-09-12T00:16:08;23.10;99.90
22337;DHT22;14992;50.844;4.418;2023-09-12T00:18:40;23.10;99.90
22337;DHT22;14992;50.844;4.418;2023-09-12T00:21:10;23.10;99.90
22337;DHT22;14992;50.844;4.418;2023-09-12T00:23:39;23.10;99.90
22337;DHT22;14992;50.844;4.418;2023-09-12T00:26:08;23.10;99.90
22337;DHT22;14992;50.844;4.418;2023-09-12T00:28:37;23.20;99.90
22337;DHT22;14992;50.844;4.418;2023-09-12T00:31:06;23.20;99.90
22337;DHT22;14992;50.844;4.418;2023-09-12T00:33:35;23.20;99.90
22337;DHT22;14992;50.844;4.418;2023-09-12T00:36:05;23.20;99.90
22337;DHT22;14992;50.844;4.418;2023-09-12T00:38:34;23.20;99.90
22337;DHT22;14992;50.844;4.418;2023-09-12T00:41:03;23.10;99.90
22337;DHT22;14992;50.844;4.418;2023-09-12T00:43:32;23.10;99.90
22337;DHT22;14992;50.844;4.418;2023-09-12T00:46:01;23.10;99.90
22337;DHT22;14992;50.844;4.418;2023-09-12T00:48:30;23.20;99.90
22337;DHT22;14992;50.844;4.418;2023-09-12T00:51:00;23.10;99.90
22337;DHT22;14992;50.844;4.418;2023-09-12T00:53:32;23.10;99.90
22337;DHT22;14992;50.844;4.418;2023-09-12T00:56:01;23.10;99.90
22337;DHT22;14992;50.844;4.418;2023-09-12T00:58:30;23.00;99.90
22337;DHT22;14992;50.844;4.418;2023-09-12T01:00:59;22.90;99.90
22337;DHT22;14992;50.844;4.418;2023-09-12T01:03:28;22.80;99.90
22337;DHT22;14992;50.844;4.418;2023-09-12T01:05:57;22.70;99.90
22337;DHT22;14992;50.844;4.418;2023-09-12T01:08:27;22.70;99.90
22337;DHT22;14992;50.844;4.418;2023-09-12T01:10:58;22.70;99.90
22337;DHT22;14992;50.844;4.418;2023-09-12T01:13:27;22.50;99.90
22337;DHT22;14992;50.844;4.418;2023-09-12T01:15:56;22.50;99.90
22337;DHT22;14992;50.844;4.418;2023-09-12T01:18:25;22.60;99.90
22337;DHT22;14992;50.844;4.418;2023-09-12T01:21:22;22.60;99.90
22337;DHT22;14992;50.844;4.418;2023-09-12T01:24:05;22.50;99.90
22337;DHT22;14992;50.844;4.418;2023-09-12T01:26:47;22.50;99.90
22337;DHT22;14992;50.844;4.418;2023-09-12T01:29:19;22.40;99.90
22337;DHT22;14992;50.844;4.418;2023-09-12T01:31:51;22.40;99.90
22337;DHT22;14992;50.844;4.418;2023-09-12T01:34:21;22.40;99.90
22337;DHT22;14992;50.844;4.418;2023-09-12T01:36:50;22.30;99.90
22337;DHT22;14992;50.844;4.418;2023-09-12T01:39:19;22.20;99.90
22337;DHT22;14992;50.844;4.418;2023-09-12T01:41:48;22.30;99.90
22337;DHT22;14992;50.844;4.418;2023-09-12T01:44:20;22.30;99.90
22337;DHT22;14992;50.844;4.418;2023-09-12T01:46:51;22.30;99.90
22337;DHT22;14992;50.844;4.418;2023-09-12T01:49:24;22.30;99.90
22337;DHT22;14992;50.844;4.418;2023-09-12T01:51:53;22.30;99.90
22337;DHT22;14992;50.844;4.418;2023-09-12T01:54:23;22.40;99.90
22337;DHT22;14992;50.844;4.418;2023-09-12T01:56:52;22.40;99.90
22337;DHT22;14992;50.844;4.418;2023-09-12T01:59:22;22.50;99.90
22337;DHT22;14992;50.844;4.418;2023-09-12T02:01:51;22.40;99.90
22337;DHT22;14992;50.844;4.418;2023-09-12T02:04:20;22.40;99.90
22337;DHT22;14992;50.844;4.418;2023-09-12T02:06:49;22.40;99.90
22337;DHT22;14992;50.844;4.418;2023-09-12T02:09:18;22.50;99.90
22337;DHT22;14992;50.844;4.418;2023-09-12T02:11:50;22.50;99.90
22337;DHT22;14992;50.844;4.418;2023-09-12T02:14:19;22.50;99.90
22337;DHT22;14992;50.844;4.418;2023-09-12T02:16:49;22.60;99.90
22337;DHT22;14992;50.844;4.418;2023-09-12T02:19:20;22.60;99.90
22337;DHT22;14992;50.844;4.418;2023-09-12T02:21:49;22.60;99.90
22337;DHT22;14992;50.844;4.418;2023-09-12T02:24:18;22.70;99.90
22337;DHT22;14992;50.844;4.418;2023-09-12T02:26:49;22.80;99.90
22337;DHT22;14992;50.844;4.418;2023-09-12T02:29:18;22.60;99.90
22337;DHT22;14992;50.844;4.418;2023-09-12T02:31:46;22.60;99.90
22337;DHT22;14992;50.844;4.418;2023-09-12T02:34:17;22.50;99.90
22337;DHT22;14992;50.844;4.418;2023-09-12T02:36:45;22.60;99.90
22337;DHT22;14992;50.844;4.418;2023-09-12T02:39:14;22.40;99.90
22337;DHT22;14992;50.844;4.418;2023-09-12T02:41:43;22.50;99.90
22337;DHT22;14992;50.844;4.418;2023-09-12T02:44:12;22.70;99.90
22337;DHT22;14992;50.844;4.418;2023-09-12T02:46:41;22.60;99.90
22337;DHT22;14992;50.844;4.418;2023-09-12T02:49:11;22.50;99.90
22337;DHT22;14992;50.844;4.418;2023-09-12T02:51:41;22.40;99.90
22337;DHT22;14992;50.844;4.418;2023-09-12T02:54:10;22.50;99.90
22337;DHT22;14992;50.844;4.418;2023-09-12T02:56:39;22.60;99.90
22337;DHT22;14992;50.844;4.418;2023-09-12T02:59:08;22.60;99.90
22337;DHT22;14992;50.844;4.418;2023-09-12T03:01:37;22.30;99.90
22337;DHT22;14992;50.844;4.418;2023-09-12T03:04:06;22.20;99.90
22337;DHT22;14992;50.844;4.418;2023-09-12T03:06:35;22.40;99.90
22337;DHT22;14992;50.844;4.418;2023-09-12T03:09:06;22.50;99.90
22337;DHT22;14992;50.844;4.418;2023-09-12T03:11:35;22.50;99.90
22337;DHT22;14992;50.844;4.418;2023-09-12T03:14:04;22.50;99.90
22337;DHT22;14992;50.844;4.418;2023-09-12T03:16:33;22.60;99.90
22337;DHT22;14992;50.844;4.418;2023-09-12T03:19:04;22.60;99.90
22337;DHT22;14992;50.844;4.418;2023-09-12T03:21:32;22.60;99.90
22337;DHT22;14992;50.844;4.418;2023-09-12T03:24:01;22.70;99.90
22337;DHT22;14992;50.844;4.418;2023-09-12T03:26:33;22.60;99.90
22337;DHT22;14992;50.844;4.418;2023-09-12T03:29:03;22.50;99.90
22337;DHT22;14992;50.844;4.418;2023-09-12T03:31:32;22.40;99.90
22337;DHT22;14992;50.844;4.418;2023-09-12T03:34:01;22.40;99.90
22337;DHT22;14992;50.844;4.418;2023-09-12T03:36:30;22.40;99.90
22337;DHT22;14992;50.844;4.418;2023-09-12T03:38:59;22.40;99.90
22337;DHT22;14992;50.844;4.418;2023-09-12T03:41:28;22.40;99.90
22337;DHT22;14992;50.844;4.418;2023-09-12T03:43:59;22.50;99.90
22337;DHT22;14992;50.844;4.418;2023-09-12T03:46:27;22.60;99.90
22337;DHT22;14992;50.844;4.418;2023-09-12T03:48:58;22.50;99.90
22337;DHT22;14992;50.844;4.418;2023-09-12T03:51:27;22.50;99.90
22337;DHT22;14992;50.844;4.418;2023-09-12T03:53:57;22.50;99.90
22337;DHT22;14992;50.844;4.418;2023-09-12T03:56:26;22.40;99.90
22337;DHT22;14992;50.844;4.418;2023-09-12T03:58:54;22.30;99.90
22337;DHT22;14992;50.844;4.418;2023-09-12T04:01:27;22.30;99.90
22337;DHT22;14992;50.844;4.418;2023-09-12T04:03:57;22.20;99.90
22337;DHT22;14992;50.844;4.418;2023-09-12T04:06:30;22.30;99.90
22337;DHT22;14992;50.844;4.418;2023-09-12T04:08:59;22.30;99.90
22337;DHT22;14992;50.844;4.418;2023-09-12T04:11:28;22.20;99.90
22337;DHT22;14992;50.844;4.418;2023-09-12T04:14:13;22.10;99.90
22337;DHT22;14992;50.844;4.418;2023-09-12T04:16:43;22.30;99.90
22337;DHT22;14992;50.844;4.418;2023-09-12T04:19:14;22.30;99.90
22337;DHT22;14992;50.844;4.418;2023-09-12T04:21:43;22.10;99.90
22337;DHT22;14992;50.844;4.418;2023-09-12T04:24:12;22.10;99.90
22337;DHT22;14992;50.844;4.418;2023-09-12T04:26:41;22.10;99.90
22337;DHT22;14992;50.844;4.418;2023-09-12T04:29:11;22.20;99.90
22337;DHT22;14992;50.844;4.418;2023-09-12T04:31:40;22.20;99.90
22337;DHT22;14992;50.844;4.418;2023-09-12T04:34:10;22.30;99.90
22337;DHT22;14992;50.844;4.418;2023-09-12T04:36:39;22.30;99.90
22337;DHT22;14992;50.844;4.418;2023-09-12T04:39:08;22.30;99.90
22337;DHT22;14992;50.844;4.418;2023-09-12T04:41:37;22.30;99.90
22337;DHT22;14992;50.844;4.418;2023-09-12T04:44:06;22.40;99.90
22337;DHT22;14992;50.844;4.418;2023-09-12T04:46:35;22.40;99.90
22337;DHT22;14992;50.844;4.418;2023-09-12T04:49:05;22.50;99.90
22337;DHT22;14992;50.844;4.418;2023-09-12T04:51:35;22.50;99.90
22337;DHT22;14992;50.844;4.418;2023-09-12T04:54:05;22.40;99.90
22337;DHT22;14992;50.844;4.418;2023-09-12T04:56:34;22.30;99.90
22337;DHT22;14992;50.844;4.418;2023-09-12T04:59:03;22.20;99.90
22337;DHT22;14992;50.844;4.418;2023-09-12T05:01:34;22.20;99.90
22337;DHT22;14992;50.844;4.418;2023-09-12T05:04:03;22.10;99.90
22337;DHT22;14992;50.844;4.418;2023-09-12T05:06:32;22.10;99.90
22337;DHT22;14992;50.844;4.418;2023-09-12T05:09:03;22.10;99.90
22337;DHT22;14992;50.844;4.418;2023-09-12T05:11:33;22.10;99.90
22337;DHT22;14992;50.844;4.418;2023-09-12T05:14:03;22.00;99.90
22337;DHT22;14992;50.844;4.418;2023-09-12T05:16:32;22.00;99.90
22337;DHT22;14992;50.844;4.418;2023-09-12T05:19:01;21.90;99.90
22337;DHT22;14992;50.844;4.418;2023-09-12T05:21:31;21.90;99.90
22337;DHT22;14992;50.844;4.418;2023-09-12T05:24:00;21.90;99.90
22337;DHT22;14992;50.844;4.418;2023-09-12T05:26:30;21.90;99.90
22337;DHT22;14992;50.844;4.418;2023-09-12T05:28:59;21.80;99.90
22337;DHT22;14992;50.844;4.418;2023-09-12T05:31:28;21.80;99.90
22337;DHT22;14992;50.844;4.418;2023-09-12T05:33:59;21.80;99.90
22337;DHT22;14992;50.844;4.418;2023-09-12T05:36:28;21.80;99.90
22337;DHT22;14992;50.844;4.418;2023-09-12T05:38:57;21.80;99.90
22337;DHT22;14992;50.844;4.418;2023-09-12T05:41:27;21.80;99.90
22337;DHT22;14992;50.844;4.418;2023-09-12T05:43:59;21.80;99.90
22337;DHT22;14992;50.844;4.418;2023-09-12T05:46:27;21.80;99.90
22337;DHT22;14992;50.844;4.418;2023-09-12T05:48:56;21.80;99.90
22337;DHT22;14992;50.844;4.418;2023-09-12T05:51:25;21.80;99.90
22337;DHT22;14992;50.844;4.418;2023-09-12T05:53:54;21.90;99.90
22337;DHT22;14992;50.844;4.418;2023-09-12T05:56:23;21.80;99.90
22337;DHT22;14992;50.844;4.418;2023-09-12T05:58:52;21.80;99.90
22337;DHT22;14992;50.844;4.418;2023-09-12T06:01:22;21.90;99.90
22337;DHT22;14992;50.844;4.418;2023-09-12T06:03:51;21.80;99.90
22337;DHT22;14992;50.844;4.418;2023-09-12T06:06:21;21.90;99.90
22337;DHT22;14992;50.844;4.418;2023-09-12T06:08:51;21.80;99.90
22337;DHT22;14992;50.844;4.418;2023-09-12T06:11:21;21.80;99.90
22337;DHT22;14992;50.844;4.418;2023-09-12T06:13:49;21.80;99.90
22337;DHT22;14992;50.844;4.418;2023-09-12T06:16:18;21.80;99.90
22337;DHT22;14992;50.844;4.418;2023-09-12T06:18:49;21.80;99.90
22337;DHT22;14992;50.844;4.418;2023-09-12T06:21:18;21.80;99.90
22337;DHT22;14992;50.844;4.418;2023-09-12T06:26:36;21.90;99.90
22337;DHT22;14992;50.844;4.418;2023-09-12T06:29:05;22.00;99.90
22337;DHT22;14992;50.844;4.418;2023-09-12T06:31:35;22.10;99.90
22337;DHT22;14992;50.844;4.418;2023-09-12T06:34:05;22.30;99.90
22337;DHT22;14992;50.844;4.418;2023-09-12T06:36:34;22.50;99.90
22337;DHT22;14992;50.844;4.418;2023-09-12T06:39:03;22.70;99.90
22337;DHT22;14992;50.844;4.418;2023-09-12T06:41:33;22.80;99.90
22337;DHT22;14992;50.844;4.418;2023-09-12T06:44:01;22.90;99.90
22337;DHT22;14992;50.844;4.418;2023-09-12T06:46:32;22.90;99.90
22337;DHT22;14992;50.844;4.418;2023-09-12T06:49:05;23.00;99.90
22337;DHT22;14992;50.844;4.418;2023-09-12T06:51:34;23.10;99.90
22337;DHT22;14992;50.844;4.418;2023-09-12T06:54:05;23.20;99.90
22337;DHT22;14992;50.844;4.418;2023-09-12T06:56:34;23.40;99.90
22337;DHT22;14992;50.844;4.418;2023-09-12T06:59:05;23.40;99.90
22337;DHT22;14992;50.844;4.418;2023-09-12T07:01:34;23.50;99.90
22337;DHT22;14992;50.844;4.418;2023-09-12T07:04:06;23.50;99.90
22337;DHT22;14992;50.844;4.418;2023-09-12T07:06:35;23.70;99.90
22337;DHT22;14992;50.844;4.418;2023-09-12T07:09:04;23.80;99.90
22337;DHT22;14992;50.844;4.418;2023-09-12T07:11:36;23.80;99.90
22337;DHT22;14992;50.844;4.418;2023-09-12T07:14:05;23.90;99.90
22337;DHT22;14992;50.844;4.418;2023-09-12T07:16:33;23.90;99.90
22337;DHT22;14992;50.844;4.418;2023-09-12T07:19:02;23.90;99.90
22337;DHT22;14992;50.844;4.418;2023-09-12T07:21:33;23.90;99.90
22337;DHT22;14992;50.844;4.418;2023-09-12T07:24:02;23.90;99.90
22337;DHT22;14992;50.844;4.418;2023-09-12T07:26:31;23.90;99.90
22337;DHT22;14992;50.844;4.418;2023-09-12T07:29:00;24.00;99.90
22337;DHT22;14992;50.844;4.418;2023-09-12T07:31:32;24.00;99.90
22337;DHT22;14992;50.844;4.418;2023-09-12T07:34:01;24.10;99.90
22337;DHT22;14992;50.844;4.418;2023-09-12T07:36:36;24.00;99.90
22337;DHT22;14992;50.844;4.418;2023-09-12T07:39:05;24.20;99.90
22337;DHT22;14992;50.844;4.418;2023-09-12T07:41:34;24.30;99.90
22337;DHT22;14992;50.844;4.418;2023-09-12T07:44:03;24.30;99.90
22337;DHT22;14992;50.844;4.418;2023-09-12T07:46:32;24.30;99.90
22337;DHT22;14992;50.844;4.418;2023-09-12T07:49:01;24.40;99.90
22337;DHT22;14992;50.844;4.418;2023-09-12T07:51:30;24.40;99.90
22337;DHT22;14992;50.844;4.418;2023-09-12T07:54:00;24.60;99.90
22337;DHT22;14992;50.844;4.418;2023-09-12T07:56:30;24.60;99.90
22337;DHT22;14992;50.844;4.418;2023-09-12T07:58:59;24.50;99.90
22337;DHT22;14992;50.844;4.418;2023-09-12T08:01:27;24.70;99.90
22337;DHT22;14992;50.844;4.418;2023-09-12T08:03:56;24.70;99.90
22337;DHT22;14992;50.844;4.418;2023-09-12T08:06:25;24.50;99.90
22337;DHT22;14992;50.844;4.418;2023-09-12T08:08:54;24.60;99.90
22337;DHT22;14992;50.844;4.418;2023-09-12T08:11:25;24.50;99.90
22337;DHT22;14992;50.844;4.418;2023-09-12T08:13:54;24.60;99.90
22337;DHT22;14992;50.844;4.418;2023-09-12T08:16:24;24.60;99.90
22337;DHT22;14992;50.844;4.418;2023-09-12T08:18:53;24.60;99.90
22337;DHT22;14992;50.844;4.418;2023-09-12T08:21:22;24.50;99.90
22337;DHT22;14992;50.844;4.418;2023-09-12T08:23:51;24.50;99.90
22337;DHT22;14992;50.844;4.418;2023-09-12T08:26:20;24.30;99.90
22337;DHT22;14992;50.844;4.418;2023-09-12T08:28:50;24.20;99.90
22337;DHT22;14992;50.844;4.418;2023-09-12T08:31:19;24.20;99.90
22337;DHT22;14992;50.844;4.418;2023-09-12T08:33:50;24.10;99.90
22337;DHT22;14992;50.844;4.418;2023-09-12T08:36:19;24.10;99.90
22337;DHT22;14992;50.844;4.418;2023-09-12T08:38:48;24.20;99.90
22337;DHT22;14992;50.844;4.418;2023-09-12T08:41:17;24.30;99.90
22337;DHT22;14992;50.844;4.418;2023-09-12T08:43:46;24.30;99.90
22337;DHT22;14992;50.844;4.418;2023-09-12T08:46:17;24.30;99.90
22337;DHT22;14992;50.844;4.418;2023-09-12T08:48:47;24.30;99.90
22337;DHT22;14992;50.844;4.418;2023-09-12T08:51:17;24.40;99.90
22337;DHT22;14992;50.844;4.418;2023-09-12T08:53:46;24.40;99.90
22337;DHT22;14992;50.844;4.418;2023-09-12T08:56:16;24.30;99.90
22337;DHT22;14992;50.844;4.418;2023-09-12T08:58:45;24.30;99.90
22337;DHT22;14992;50.844;4.418;2023-09-12T09:01:17;24.30;99.90
22337;DHT22;14992;50.844;4.418;2023-09-12T09:03:47;24.30;99.90
22337;DHT22;14992;50.844;4.418;2023-09-12T09:06:17;24.40;99.90
22337;DHT22;14992;50.844;4.418;2023-09-12T09:08:48;24.60;99.90
22337;DHT22;14992;50.844;4.418;2023-09-12T09:11:18;24.70;99.90
22337;DHT22;14992;50.844;4.418;2023-09-12T09:13:47;24.70;99.90
22337;DHT22;14992;50.844;4.418;2023-09-12T09:16:18;24.90;99.90
22337;DHT22;14992;50.844;4.418;2023-09-12T09:18:53;25.00;99.90
22337;DHT22;14992;50.844;4.418;2023-09-12T09:21:23;25.20;99.90
22337;DHT22;14992;50.844;4.418;2023-09-12T09:23:54;25.20;99.90
22337;DHT22;14992;50.844;4.418;2023-09-12T09:26:23;25.40;99.90
22337;DHT22;14992;50.844;4.418;2023-09-12T09:29:06;25.60;99.90
22337;DHT22;14992;50.844;4.418;2023-09-12T09:31:40;25.50;99.90
22337;DHT22;14992;50.844;4.418;2023-09-12T09:34:14;25.60;99.90
22337;DHT22;14992;50.844;4.418;2023-09-12T09:36:47;25.60;99.90
22337;DHT22;14992;50.844;4.418;2023-09-12T09:39:17;25.60;99.90
22337;DHT22;14992;50.844;4.418;2023-09-12T09:41:47;25.40;99.90
22337;DHT22;14992;50.844;4.418;2023-09-12T09:44:17;25.60;99.90
22337;DHT22;14992;50.844;4.418;2023-09-12T09:46:50;25.70;99.90
22337;DHT22;14992;50.844;4.418;2023-09-12T09:49:20;25.80;99.90
22337;DHT22;14992;50.844;4.418;2023-09-12T09:51:49;25.90;99.90
22337;DHT22;14992;50.844;4.418;2023-09-12T09:54:18;26.00;99.90
22337;DHT22;14992;50.844;4.418;2023-09-12T09:56:49;26.00;99.90
22337;DHT22;14992;50.844;4.418;2023-09-12T09:59:21;26.10;99.90
22337;DHT22;14992;50.844;4.418;2023-09-12T10:01:52;25.80;99.90
22337;DHT22;14992;50.844;4.418;2023-09-12T10:04:25;25.80;99.90
22337;DHT22;14992;50.844;4.418;2023-09-12T10:06:56;25.80;99.90
22337;DHT22;14992;50.844;4.418;2023-09-12T10:09:26;25.90;99.90
22337;DHT22;14992;50.844;4.418;2023-09-12T10:11:57;26.00;99.90
22337;DHT22;14992;50.844;4.418;2023-09-12T10:14:27;26.10;99.90
22337;DHT22;14992;50.844;4.418;2023-09-12T10:17:01;26.30;99.90
22337;DHT22;14992;50.844;4.418;2023-09-12T10:19:38;26.60;99.90
22337;DHT22;14992;50.844;4.418;2023-09-12T10:22:11;26.70;99.90
22337;DHT22;14992;50.844;4.418;2023-09-12T10:24:42;26.80;99.90
22337;DHT22;14992;50.844;4.418;2023-09-12T10:27:13;27.00;99.90
22337;DHT22;14992;50.844;4.418;2023-09-12T10:29:42;26.90;99.90
22337;DHT22;14992;50.844;4.418;2023-09-12T10:32:17;26.90;99.90
22337;DHT22;14992;50.844;4.418;2023-09-12T10:34:49;26.90;99.90
22337;DHT22;14992;50.844;4.418;2023-09-12T10:37:19;27.20;99.90
22337;DHT22;14992;50.844;4.418;2023-09-12T10:39:53;27.00;99.90
22337;DHT22;14992;50.844;4.418;2023-09-12T10:42:24;27.10;99.90
22337;DHT22;14992;50.844;4.418;2023-09-12T10:44:55;26.90;99.90
22337;DHT22;14992;50.844;4.418;2023-09-12T10:47:28;26.70;99.90
22337;DHT22;14992;50.844;4.418;2023-09-12T10:49:57;26.70;99.90
22337;DHT22;14992;50.844;4.418;2023-09-12T10:52:26;26.40;99.90
22337;DHT22;14992;50.844;4.418;2023-09-12T10:54:55;26.40;99.90
22337;DHT22;14992;50.844;4.418;2023-09-12T10:57:24;26.40;99.90
22337;DHT22;14992;50.844;4.418;2023-09-12T11:00:12;26.40;99.90
22337;DHT22;14992;50.844;4.418;2023-09-12T11:02:42;26.40;99.90
22337;DHT22;14992;50.844;4.418;2023-09-12T11:05:37;26.20;99.90
22337;DHT22;14992;50.844;4.418;2023-09-12T11:08:07;26.30;99.90
22337;DHT22;14992;50.844;4.418;2023-09-12T11:10:36;26.40;99.90
22337;DHT22;14992;50.844;4.418;2023-09-12T11:13:05;26.60;99.90
22337;DHT22;14992;50.844;4.418;2023-09-12T11:15:33;26.70;99.90
22337;DHT22;14992;50.844;4.418;2023-09-12T11:18:06;26.70;99.90
22337;DHT22;14992;50.844;4.418;2023-09-12T11:20:52;26.80;99.90
22337;DHT22;14992;50.844;4.418;2023-09-12T11:23:21;26.90;99.90
22337;DHT22;14992;50.844;4.418;2023-09-12T11:26:02;27.00;99.90
22337;DHT22;14992;50.844;4.418;2023-09-12T11:28:32;27.10;99.90
22337;DHT22;14992;50.844;4.418;2023-09-12T11:31:01;27.20;99.90
22337;DHT22;14992;50.844;4.418;2023-09-12T11:33:32;27.30;99.90
22337;DHT22;14992;50.844;4.418;2023-09-12T11:36:02;27.30;99.90
22337;DHT22;14992;50.844;4.418;2023-09-12T11:38:38;27.10;99.90
22337;DHT22;14992;50.844;4.418;2023-09-12T11:41:07;27.10;99.90
22337;DHT22;14992;50.844;4.418;2023-09-12T11:43:37;27.20;99.90
22337;DHT22;14992;50.844;4.418;2023-09-12T11:46:07;27.40;99.90
22337;DHT22;14992;50.844;4.418;2023-09-12T11:48:38;27.40;99.90
22337;DHT22;14992;50.844;4.418;2023-09-12T11:51:07;27.60;99.90
22337;DHT22;14992;50.844;4.418;2023-09-12T11:53:37;27.60;99.90
22337;DHT22;14992;50.844;4.418;2023-09-12T11:56:05;27.30;99.90
22337;DHT22;14992;50.844;4.418;2023-09-12T11:58:35;27.30;99.90
22337;DHT22;14992;50.844;4.418;2023-09-12T12:01:04;27.20;99.90
22337;DHT22;14992;50.844;4.418;2023-09-12T12:03:33;27.20;99.90
22337;DHT22;14992;50.844;4.418;2023-09-12T12:06:04;27.20;99.90
22337;DHT22;14992;50.844;4.418;2023-09-12T12:08:34;27.30;99.90
22337;DHT22;14992;50.844;4.418;2023-09-12T12:11:04;27.20;99.90
22337;DHT22;14992;50.844;4.418;2023-09-12T12:13:35;27.10;99.90
22337;DHT22;14992;50.844;4.418;2023-09-12T12:16:15;27.20;99.90
22337;DHT22;14992;50.844;4.418;2023-09-12T12:18:44;27.50;99.90
22337;DHT22;14992;50.844;4.418;2023-09-12T12:21:14;27.60;99.90
22337;DHT22;14992;50.844;4.418;2023-09-12T12:23:43;27.80;99.90
22337;DHT22;14992;50.844;4.418;2023-09-12T12:26:12;28.00;99.90
22337;DHT22;14992;50.844;4.418;2023-09-12T12:28:41;28.10;99.90
22337;DHT22;14992;50.844;4.418;2023-09-12T12:31:10;28.10;99.90
22337;DHT22;14992;50.844;4.418;2023-09-12T12:33:39;28.20;99.90
22337;DHT22;14992;50.844;4.418;2023-09-12T12:36:29;28.40;99.20
22337;DHT22;14992;50.844;4.418;2023-09-12T12:39:00;28.40;99.50
22337;DHT22;14992;50.844;4.418;2023-09-12T12:41:29;28.10;99.90
22337;DHT22;14992;50.844;4.418;2023-09-12T12:44:15;28.00;99.90
22337;DHT22;14992;50.844;4.418;2023-09-12T12:46:49;27.90;99.90
22337;DHT22;14992;50.844;4.418;2023-09-12T12:49:18;27.80;99.90
22337;DHT22;14992;50.844;4.418;2023-09-12T12:51:49;27.80;99.90
22337;DHT22;14992;50.844;4.418;2023-09-12T12:54:22;27.70;99.90
22337;DHT22;14992;50.844;4.418;2023-09-12T12:56:52;27.50;99.90
22337;DHT22;14992;50.844;4.418;2023-09-12T12:59:21;27.70;99.90
22337;DHT22;14992;50.844;4.418;2023-09-12T13:01:50;27.80;99.90
22337;DHT22;14992;50.844;4.418;2023-09-12T13:04:20;27.80;99.90
22337;DHT22;14992;50.844;4.418;2023-09-12T13:06:50;27.60;99.90
22337;DHT22;14992;50.844;4.418;2023-09-12T13:09:19;27.60;99.90
22337;DHT22;14992;50.844;4.418;2023-09-12T13:11:48;27.70;99.90
22337;DHT22;14992;50.844;4.418;2023-09-12T13:14:17;27.60;99.90
22337;DHT22;14992;50.844;4.418;2023-09-12T13:16:46;27.40;99.90
22337;DHT22;14992;50.844;4.418;2023-09-12T13:19:15;27.40;99.90
22337;DHT22;14992;50.844;4.418;2023-09-12T13:21:44;27.30;99.90
22337;DHT22;14992;50.844;4.418;2023-09-12T13:24:14;27.10;99.90
22337;DHT22;14992;50.844;4.418;2023-09-12T13:26:43;27.20;99.90
22337;DHT22;14992;50.844;4.418;2023-09-12T13:29:12;27.00;99.90
22337;DHT22;14992;50.844;4.418;2023-09-12T13:31:41;27.00;99.90
22337;DHT22;14992;50.844;4.418;2023-09-12T13:34:11;27.10;99.90
22337;DHT22;14992;50.844;4.418;2023-09-12T13:36:40;27.10;99.90
22337;DHT22;14992;50.844;4.418;2023-09-12T13:39:09;27.20;99.90
22337;DHT22;14992;50.844;4.418;2023-09-12T13:41:41;27.00;99.90
22337;DHT22;14992;50.844;4.418;2023-09-12T13:44:10;27.00;99.90
22337;DHT22;14992;50.844;4.418;2023-09-12T13:46:39;27.00;99.90
22337;DHT22;14992;50.844;4.418;2023-09-12T13:49:11;27.00;99.90
22337;DHT22;14992;50.844;4.418;2023-09-12T13:51:40;26.90;99.90
22337;DHT22;14992;50.844;4.418;2023-09-12T13:54:09;26.90;99.90
22337;DHT22;14992;50.844;4.418;2023-09-12T13:56:44;26.80;99.90
22337;DHT22;14992;50.844;4.418;2023-09-12T13:59:13;27.00;99.90
22337;DHT22;14992;50.844;4.418;2023-09-12T14:01:43;27.00;99.90
22337;DHT22;14992;50.844;4.418;2023-09-12T14:04:12;27.00;99.90
22337;DHT22;14992;50.844;4.418;2023-09-12T14:06:42;26.90;99.90
22337;DHT22;14992;50.844;4.418;2023-09-12T14:09:12;26.90;99.90
22337;DHT22;14992;50.844;4.418;2023-09-12T14:11:47;26.90;99.90
22337;DHT22;14992;50.844;4.418;2023-09-12T14:14:15;26.90;99.90
22337;DHT22;14992;50.844;4.418;2023-09-12T14:16:47;26.90;99.90
22337;DHT22;14992;50.844;4.418;2023-09-12T14:19:17;26.80;99.90
22337;DHT22;14992;50.844;4.418;2023-09-12T14:21:47;26.70;99.90
22337;DHT22;14992;50.844;4.418;2023-09-12T14:24:16;26.70;99.90
22337;DHT22;14992;50.844;4.418;2023-09-12T14:26:49;26.50;99.90
22337;DHT22;14992;50.844;4.418;2023-09-12T14:29:19;26.40;99.90
22337;DHT22;14992;50.844;4.418;2023-09-12T14:31:49;26.50;99.90
22337;DHT22;14992;50.844;4.418;2023-09-12T14:34:25;26.50;99.90
22337;DHT22;14992;50.844;4.418;2023-09-12T14:36:55;26.70;99.90
22337;DHT22;14992;50.844;4.418;2023-09-12T14:39:25;26.70;99.90
22337;DHT22;14992;50.844;4.418;2023-09-12T14:41:55;26.90;99.90
22337;DHT22;14992;50.844;4.418;2023-09-12T14:44:24;26.70;99.90
22337;DHT22;14992;50.844;4.418;2023-09-12T14:46:53;26.50;99.90
22337;DHT22;14992;50.844;4.418;2023-09-12T14:49:22;26.40;99.90
22337;DHT22;14992;50.844;4.418;2023-09-12T14:51:52;26.30;99.90
22337;DHT22;14992;50.844;4.418;2023-09-12T14:54:22;26.30;99.90
22337;DHT22;14992;50.844;4.418;2023-09-12T14:56:51;26.50;99.90
22337;DHT22;14992;50.844;4.418;2023-09-12T14:59:21;26.50;99.90
22337;DHT22;14992;50.844;4.418;2023-09-12T15:01:53;26.50;99.90
22337;DHT22;14992;50.844;4.418;2023-09-12T15:04:22;26.60;99.90
22337;DHT22;14992;50.844;4.418;2023-09-12T15:06:52;26.60;99.90
22337;DHT22;14992;50.844;4.418;2023-09-12T15:09:21;26.40;99.90
22337;DHT22;14992;50.844;4.418;2023-09-12T15:11:49;26.50;99.90
22337;DHT22;14992;50.844;4.418;2023-09-12T15:14:18;26.60;99.90
22337;DHT22;14992;50.844;4.418;2023-09-12T15:16:48;26.50;99.90
22337;DHT22;14992;50.844;4.418;2023-09-12T15:19:17;26.40;99.90
22337;DHT22;14992;50.844;4.418;2023-09-12T15:21:46;26.30;99.90
22337;DHT22;14992;50.844;4.418;2023-09-12T15:24:15;26.30;99.90
22337;DHT22;14992;50.844;4.418;2023-09-12T15:26:44;26.20;99.90
22337;DHT22;14992;50.844;4.418;2023-09-12T15:29:13;26.20;99.90
22337;DHT22;14992;50.844;4.418;2023-09-12T15:31:41;26.10;99.90
22337;DHT22;14992;50.844;4.418;2023-09-12T15:34:12;26.00;99.90
22337;DHT22;14992;50.844;4.418;2023-09-12T15:36:43;26.00;99.90
22337;DHT22;14992;50.844;4.418;2023-09-12T15:39:13;25.90;99.90
22337;DHT22;14992;50.844;4.418;2023-09-12T15:41:42;25.80;99.90
22337;DHT22;14992;50.844;4.418;2023-09-12T15:44:11;25.80;99.90
22337;DHT22;14992;50.844;4.418;2023-09-12T15:46:43;25.70;99.90
22337;DHT22;14992;50.844;4.418;2023-09-12T15:49:13;25.60;99.90
22337;DHT22;14992;50.844;4.418;2023-09-12T15:51:42;25.50;99.90